createdAt,value
2022-10-28T00:00:03.028Z,1008.4
2022-10-28T00:04:03.051Z,1008.5
2022-10-28T00:06:13.285Z,1008.5
2022-10-28T00:09:04.563Z,1008.5
2022-10-28T00:12:03.004Z,1008.5
2022-10-28T00:14:03.029Z,1008.4
2022-10-28T00:17:03.038Z,1008.5
2022-10-28T00:19:13.372Z,1008.5
2022-10-28T00:22:03.038Z,1008.4
2022-10-28T00:24:03.053Z,1008.3
2022-10-28T00:27:03.039Z,1008.4
2022-10-28T00:29:03.072Z,1008.4
2022-10-28T00:32:03.058Z,1008.4
2022-10-28T00:35:03.067Z,1008.4
2022-10-28T00:38:03.041Z,1008.4
2022-10-28T00:40:03.063Z,1008.4
2022-10-28T00:43:03.039Z,1008.3
2022-10-28T00:45:03.026Z,1008.4
2022-10-28T00:47:03.053Z,1008.5
2022-10-28T00:49:03.052Z,1008.4
2022-10-28T00:52:03.056Z,1008.4
2022-10-28T00:55:03.048Z,1008.4
2022-10-28T00:58:03.040Z,1008.3
2022-10-28T01:00:03.057Z,1008.3
2022-10-28T01:02:03.134Z,1008.3
2022-10-28T01:05:03.051Z,1008.3
2022-10-28T01:07:03.032Z,1008.2
2022-10-28T01:10:03.057Z,1008.3
2022-10-28T01:13:03.006Z,1008.3
2022-10-28T01:15:03.054Z,1008.3
2022-10-28T01:18:03.038Z,1008.2
2022-10-28T01:20:03.092Z,1008.3
2022-10-28T01:23:03.050Z,1008.2
2022-10-28T01:25:03.089Z,1008.2
2022-10-28T01:28:03.030Z,1008.2
2022-10-28T01:30:03.067Z,1008.2
2022-10-28T01:34:03.058Z,1008.2
2022-10-28T01:38:03.115Z,1008.2
2022-10-28T01:40:13.327Z,1008.2
2022-10-28T01:42:13.342Z,1008.2
2022-10-28T01:45:03.057Z,1008.2
2022-10-28T01:47:03.069Z,1008.2
2022-10-28T01:49:03.066Z,1008.1
2022-10-28T01:51:13.312Z,1008.1
2022-10-28T01:53:13.341Z,1008.1
2022-10-28T01:56:03.038Z,1008.1
2022-10-28T01:58:03.072Z,1008.1
2022-10-28T02:00:03.080Z,1008.1
2022-10-28T02:03:03.057Z,1008.1
2022-10-28T02:05:03.047Z,1008.1
2022-10-28T02:07:03.078Z,1008.1
2022-10-28T02:09:03.105Z,1008.1
2022-10-28T02:12:03.038Z,1008.1
2022-10-28T02:14:03.106Z,1008.1
2022-10-28T02:17:03.055Z,1007.9
2022-10-28T02:20:03.075Z,1007.9
2022-10-28T02:22:03.098Z,1007.9
2022-10-28T02:26:03.066Z,1008
2022-10-28T02:28:03.136Z,1007.9
2022-10-28T02:31:13.329Z,1007.9
2022-10-28T02:33:13.353Z,1007.9
2022-10-28T02:36:03.067Z,1008
2022-10-28T02:38:03.066Z,1007.9
2022-10-28T02:40:03.186Z,1007.9
2022-10-28T02:43:13.342Z,1007.8
2022-10-28T02:45:13.340Z,1007.8
2022-10-28T02:48:03.112Z,1007.8
2022-10-28T02:51:03.086Z,1007.8
2022-10-28T02:54:03.099Z,1007.8
2022-10-28T02:56:03.087Z,1007.7
2022-10-28T02:58:03.081Z,1007.7
2022-10-28T03:01:03.069Z,1007.7
2022-10-28T03:03:03.077Z,1007.6
2022-10-28T03:05:03.068Z,1007.6
2022-10-28T03:08:03.090Z,1007.6
2022-10-28T03:11:03.048Z,1007.6
2022-10-28T03:14:03.066Z,1007.6
2022-10-28T03:16:03.045Z,1007.5
2022-10-28T03:18:06.036Z,1007.6
2022-10-28T03:21:03.068Z,1007.6
2022-10-28T03:23:03.045Z,1007.6
2022-10-28T03:26:03.088Z,1007.6
2022-10-28T03:28:03.047Z,1007.6
2022-10-28T03:30:03.079Z,1007.6
2022-10-28T03:33:03.058Z,1007.6
2022-10-28T03:35:03.055Z,1007.6
2022-10-28T03:38:03.044Z,1007.6
2022-10-28T03:40:03.055Z,1007.6
2022-10-28T03:43:03.051Z,1007.5
2022-10-28T03:45:03.097Z,1007.5
2022-10-28T03:47:03.071Z,1007.5
2022-10-28T03:50:03.046Z,1007.4
2022-10-28T03:52:03.090Z,1007.4
2022-10-28T03:54:03.054Z,1007.4
2022-10-28T03:57:03.128Z,1007.3
2022-10-28T03:59:06.162Z,1007.4
2022-10-28T04:03:03.081Z,1007.3
2022-10-28T04:06:03.060Z,1007.3
2022-10-28T04:08:03.102Z,1007.2
2022-10-28T04:11:03.058Z,1007.4
2022-10-28T04:13:03.075Z,1007.3
2022-10-28T04:16:03.101Z,1007.3
2022-10-28T04:18:03.093Z,1007.4
2022-10-28T04:20:03.106Z,1007.4
2022-10-28T04:23:03.588Z,1007.5
2022-10-28T04:25:03.219Z,1007.4
2022-10-28T04:28:03.071Z,1007.5
2022-10-28T04:30:03.088Z,1007.4
2022-10-28T04:33:03.086Z,1007.4
2022-10-28T04:36:03.323Z,1007.4
2022-10-28T04:39:03.083Z,1007.4
2022-10-28T04:41:03.074Z,1007.4
2022-10-28T04:43:03.400Z,1007.5
2022-10-28T04:45:03.093Z,1007.5
2022-10-28T04:48:03.067Z,1007.5
2022-10-28T04:50:03.079Z,1007.5
2022-10-28T04:53:13.398Z,1007.4
2022-10-28T04:56:03.093Z,1007.4
2022-10-28T04:59:03.075Z,1007.4
2022-10-28T05:03:03.361Z,1007.5
2022-10-28T05:06:03.095Z,1007.5
2022-10-28T05:09:03.082Z,1007.4
2022-10-28T05:11:03.107Z,1007.4
2022-10-28T05:13:03.135Z,1007.4
2022-10-28T05:16:03.107Z,1007.4
2022-10-28T05:19:03.124Z,1007.4
2022-10-28T05:21:13.372Z,1007.3
2022-10-28T05:23:13.379Z,1007.3
2022-10-28T05:26:03.100Z,1007.3
2022-10-28T05:28:03.127Z,1007.3
2022-10-28T05:30:03.089Z,1007.2
2022-10-28T05:33:03.127Z,1007.2
2022-10-28T05:36:03.112Z,1007.2
2022-10-28T05:39:03.131Z,1007.2
2022-10-28T05:42:03.133Z,1007.2
2022-10-28T05:45:03.094Z,1007.2
2022-10-28T05:48:03.129Z,1007.2
2022-10-28T05:50:03.098Z,1007.2
2022-10-28T05:53:03.108Z,1007.1
2022-10-28T05:56:03.086Z,1007.2
2022-10-28T05:59:03.117Z,1007.3
2022-10-28T06:01:03.135Z,1007.3
2022-10-28T06:04:03.153Z,1007.5
2022-10-28T06:07:03.114Z,1007.5
2022-10-28T06:10:03.094Z,1007.4
2022-10-28T06:13:01.579Z,1007.4
2022-10-28T06:16:01.580Z,1007.4
2022-10-28T06:18:01.583Z,1007.4
2022-10-28T06:21:01.596Z,1007.4
2022-10-28T06:24:01.607Z,1007.5
2022-10-28T06:26:01.606Z,1007.5
2022-10-28T06:29:01.595Z,1007.5
2022-10-28T06:32:01.607Z,1007.5
2022-10-28T06:35:01.587Z,1007.6
2022-10-28T06:37:01.607Z,1007.6
2022-10-28T06:39:01.619Z,1007.6
2022-10-28T06:42:01.597Z,1007.7
2022-10-28T06:45:01.623Z,1007.8
2022-10-28T06:48:13.414Z,1007.7
2022-10-28T06:51:03.126Z,1007.7
2022-10-28T06:53:03.143Z,1007.7
2022-10-28T06:56:03.155Z,1007.8
2022-10-28T06:59:03.166Z,1007.9
2022-10-28T07:02:03.251Z,1007.9
2022-10-28T07:05:03.126Z,1007.8
2022-10-28T07:07:03.151Z,1007.8
2022-10-28T07:10:03.113Z,1007.9
2022-10-28T07:12:05.004Z,1007.9
2022-10-28T07:15:03.112Z,1007.9
2022-10-28T07:18:03.120Z,1007.9
2022-10-28T07:20:23.754Z,1007.9
2022-10-28T07:22:25.720Z,1007.9
2022-10-28T07:25:03.135Z,1008
2022-10-28T07:28:03.136Z,1007.9
2022-10-28T07:31:03.187Z,1007.9
2022-10-28T07:34:03.135Z,1007.9
2022-10-28T07:36:03.146Z,1008
2022-10-28T07:38:03.162Z,1007.9
2022-10-28T07:41:04.204Z,1007.9
2022-10-28T07:44:03.173Z,1008
2022-10-28T07:47:03.127Z,1008.1
2022-10-28T07:49:03.146Z,1008
2022-10-28T07:51:03.171Z,1008
2022-10-28T07:54:03.200Z,1008
2022-10-28T07:57:03.156Z,1008
2022-10-28T07:59:03.173Z,1008
2022-10-28T08:01:03.234Z,1008
2022-10-28T08:04:03.185Z,1008.1
2022-10-28T08:07:03.160Z,1008.1
2022-10-28T08:10:03.109Z,1008
2022-10-28T08:12:03.145Z,1008
2022-10-28T08:14:03.165Z,1008
2022-10-28T08:17:03.138Z,1007.9
2022-10-28T08:20:03.108Z,1008
2022-10-28T08:22:13.412Z,1008
2022-10-28T08:25:03.149Z,1008.1
2022-10-28T08:28:03.138Z,1008.1
2022-10-28T08:32:03.148Z,1008.1
2022-10-28T08:34:13.432Z,1008.1
2022-10-28T08:36:23.662Z,1008
2022-10-28T08:39:03.147Z,1008
2022-10-28T08:41:03.138Z,1008
2022-10-28T08:44:03.140Z,1008
2022-10-28T08:46:13.396Z,1008
2022-10-28T08:48:13.395Z,1008
2022-10-28T08:51:03.150Z,1007.9
2022-10-28T08:54:03.163Z,1007.9
2022-10-28T08:56:03.188Z,1007.9
2022-10-28T08:58:03.144Z,1007.9
2022-10-28T09:01:03.211Z,1007.9
2022-10-28T09:03:03.153Z,1007.9
2022-10-28T09:06:03.170Z,1007.9
2022-10-28T09:08:03.135Z,1008
2022-10-28T09:10:03.147Z,1008
2022-10-28T09:13:03.180Z,1008
2022-10-28T09:16:03.152Z,1007.9
2022-10-28T09:18:03.118Z,1008
2022-10-28T09:21:03.167Z,1008
2022-10-28T09:23:03.172Z,1008
2022-10-28T09:25:03.159Z,1008
2022-10-28T09:28:03.225Z,1008
2022-10-28T09:31:03.127Z,1007.9
2022-10-28T09:33:03.163Z,1008
2022-10-28T09:36:03.150Z,1008
2022-10-28T09:38:03.148Z,1007.9
2022-10-28T09:40:03.173Z,1007.9
2022-10-28T09:43:03.173Z,1007.9
2022-10-28T09:45:03.225Z,1008
2022-10-28T09:48:03.184Z,1007.9
2022-10-28T09:50:13.434Z,1007.9
2022-10-28T09:53:03.159Z,1007.9
2022-10-28T09:56:03.171Z,1007.9
2022-10-28T09:58:03.153Z,1007.9
2022-10-28T10:00:03.145Z,1007.9
2022-10-28T10:02:03.271Z,1008
2022-10-28T10:04:03.152Z,1008
2022-10-28T10:06:13.451Z,1008
2022-10-28T10:08:13.476Z,1008
2022-10-28T10:12:03.166Z,1008
2022-10-28T10:14:03.159Z,1007.9
2022-10-28T10:17:14.475Z,1008
2022-10-28T10:20:13.445Z,1007.9
2022-10-28T10:23:03.161Z,1007.9
2022-10-28T10:26:05.515Z,1007.9
2022-10-28T10:28:03.164Z,1007.9
2022-10-28T10:30:03.137Z,1007.8
2022-10-28T10:33:03.167Z,1007.8
2022-10-28T10:36:03.153Z,1007.8
2022-10-28T10:38:03.164Z,1007.8
2022-10-28T10:41:03.159Z,1007.8
2022-10-28T10:43:13.586Z,1007.8
2022-10-28T10:46:03.176Z,1007.7
2022-10-28T10:48:03.182Z,1007.8
2022-10-28T10:50:03.155Z,1007.8
2022-10-28T10:53:03.209Z,1007.8
2022-10-28T10:56:03.172Z,1007.8
2022-10-28T10:59:03.173Z,1007.7
2022-10-28T11:01:03.184Z,1007.7
2022-10-28T11:04:03.188Z,1007.7
2022-10-28T11:06:23.378Z,1007.6
2022-10-28T11:08:13.477Z,1007.6
2022-10-28T11:11:03.153Z,1007.6
2022-10-28T11:13:03.179Z,1007.6
2022-10-28T11:16:03.188Z,1007.6
2022-10-28T11:19:03.122Z,1007.4
2022-10-28T11:21:03.162Z,1007.4
2022-10-28T11:24:03.188Z,1007.5
2022-10-28T11:27:03.145Z,1007.4
2022-10-28T11:29:03.153Z,1007.3
2022-10-28T11:31:03.242Z,1007.4
2022-10-28T11:34:03.165Z,1007.3
2022-10-28T11:36:03.196Z,1007.3
2022-10-28T11:39:03.163Z,1007.3
2022-10-28T11:41:03.157Z,1007.3
2022-10-28T11:43:03.182Z,1007.2
2022-10-28T11:46:03.185Z,1007.3
2022-10-28T11:48:03.175Z,1007.3
2022-10-28T11:51:03.159Z,1007.3
2022-10-28T11:54:03.157Z,1007.2
2022-10-28T11:57:03.150Z,1007.2
2022-10-28T11:59:03.156Z,1007.1
2022-10-28T12:02:03.381Z,1007.1
2022-10-28T12:05:03.172Z,1006.9
2022-10-28T12:08:03.186Z,1007
2022-10-28T12:11:03.171Z,1006.9
2022-10-28T12:13:03.162Z,1006.9
2022-10-28T12:16:03.170Z,1006.9
2022-10-28T12:18:05.917Z,1006.9
2022-10-28T12:20:13.443Z,1006.8
2022-10-28T12:23:03.157Z,1006.8
2022-10-28T12:26:03.166Z,1006.8
2022-10-28T12:28:03.265Z,1006.7
2022-10-28T12:31:03.177Z,1006.7
2022-10-28T12:33:03.198Z,1006.7
2022-10-28T12:36:03.183Z,1006.7
2022-10-28T12:38:03.276Z,1006.6
2022-10-28T12:41:03.218Z,1006.6
2022-10-28T12:44:03.184Z,1006.5
2022-10-28T12:47:03.181Z,1006.6
2022-10-28T12:49:03.195Z,1006.5
2022-10-28T12:52:03.185Z,1006.5
2022-10-28T12:55:03.222Z,1006.4
2022-10-28T12:57:03.206Z,1006.4
2022-10-28T12:59:13.462Z,1006.4
2022-10-28T13:03:03.197Z,1006.3
2022-10-28T13:07:03.229Z,1006.4
2022-10-28T13:09:13.454Z,1006.4
2022-10-28T13:12:03.204Z,1006.3
2022-10-28T13:14:03.217Z,1006.3
2022-10-28T13:16:03.205Z,1006.3
2022-10-28T13:19:03.181Z,1006.4
2022-10-28T13:21:03.240Z,1006.4
2022-10-28T13:24:03.208Z,1006.4
2022-10-28T13:26:03.247Z,1006.3
2022-10-28T13:29:03.182Z,1006.2
2022-10-28T13:32:03.229Z,1006.2
2022-10-28T13:34:13.489Z,1006.2
2022-10-28T13:37:03.178Z,1006.1
2022-10-28T13:39:03.231Z,1006.2
2022-10-28T13:42:13.483Z,1006.2
2022-10-28T13:45:03.179Z,1006.2
2022-10-28T13:47:03.274Z,1006.2
2022-10-28T13:51:03.213Z,1006.3
2022-10-28T13:53:13.485Z,1006.4
2022-10-28T13:56:03.192Z,1006.4
2022-10-28T13:59:03.199Z,1006.3
2022-10-28T14:03:03.320Z,1006.3
2022-10-28T14:05:13.462Z,1006.4
2022-10-28T14:08:03.236Z,1006.3
2022-10-28T14:10:03.304Z,1006.3
2022-10-28T14:16:14.355Z,1006.3
2022-10-28T14:20:06.351Z,1006.4
2022-10-28T14:24:03.210Z,1006.3
2022-10-28T14:26:03.232Z,1006.3
2022-10-28T14:28:13.522Z,1006.3
2022-10-28T14:31:03.213Z,1006.3
2022-10-28T14:33:03.213Z,1006.3
2022-10-28T14:35:03.197Z,1006.4
2022-10-28T14:38:13.469Z,1006.4
2022-10-28T14:40:13.474Z,1006.4
2022-10-28T14:43:03.209Z,1006.4
2022-10-28T14:45:03.207Z,1006.4
2022-10-28T14:47:03.310Z,1006.4
2022-10-28T14:49:13.934Z,1006.5
2022-10-28T14:51:13.513Z,1006.5
2022-10-28T14:55:03.252Z,1006.5
2022-10-28T14:59:03.261Z,1006.6
2022-10-28T15:01:13.615Z,1006.6
2022-10-28T15:04:03.223Z,1006.6
2022-10-28T15:07:03.213Z,1006.5
2022-10-28T15:09:03.246Z,1006.5
2022-10-28T15:11:13.522Z,1006.5
2022-10-28T15:14:03.252Z,1006.5
2022-10-28T15:16:03.814Z,1006.6
2022-10-28T15:20:03.234Z,1006.5
2022-10-28T15:22:13.485Z,1006.5
2022-10-28T15:25:03.234Z,1006.5
2022-10-28T15:28:03.243Z,1006.5
2022-10-28T15:32:03.307Z,1006.6
2022-10-28T15:35:13.501Z,1006.6
2022-10-28T15:37:13.506Z,1006.6
2022-10-28T15:40:05.337Z,1006.6
2022-10-28T15:43:03.370Z,1006.6
2022-10-28T15:45:23.797Z,1006.6
2022-10-28T15:47:23.812Z,1006.6
2022-10-28T15:51:03.203Z,1006.7
2022-10-28T15:53:03.308Z,1006.7
2022-10-28T15:56:07.503Z,1006.7
2022-10-28T15:58:16.546Z,1006.7
2022-10-28T16:00:13.517Z,1006.7
2022-10-28T16:04:03.290Z,1006.7
2022-10-28T16:07:03.263Z,1006.7
2022-10-28T16:09:13.524Z,1006.7
2022-10-28T16:12:03.252Z,1006.7
2022-10-28T16:15:03.270Z,1006.8
2022-10-28T16:17:03.269Z,1006.9
2022-10-28T16:19:03.246Z,1006.9
2022-10-28T16:21:23.856Z,1006.9
2022-10-28T16:24:13.543Z,1006.9
2022-10-28T16:27:03.284Z,1007
2022-10-28T16:31:03.269Z,1007.1
2022-10-28T16:33:13.520Z,1007.1
2022-10-28T16:36:03.296Z,1007
2022-10-28T16:39:03.294Z,1007.1
2022-10-28T16:41:10.261Z,1007
2022-10-28T16:43:13.549Z,1007
2022-10-28T16:46:13.538Z,1007.1
2022-10-28T16:49:03.276Z,1007.1
2022-10-28T16:51:03.306Z,1007.1
2022-10-28T16:54:03.242Z,1007.1
2022-10-28T16:56:03.282Z,1007.1
2022-10-28T16:59:03.286Z,1007.1
2022-10-28T17:02:03.366Z,1007
2022-10-28T17:05:03.271Z,1007
2022-10-28T17:07:03.318Z,1006.9
2022-10-28T17:10:03.244Z,1007
2022-10-28T17:13:03.302Z,1007.1
2022-10-28T17:16:03.241Z,1007
2022-10-28T17:18:03.277Z,1007.1
2022-10-28T17:20:03.261Z,1007.1
2022-10-28T17:23:03.325Z,1007.1
2022-10-28T17:26:03.242Z,1007.2
2022-10-28T17:28:03.359Z,1007.3
2022-10-28T17:31:03.252Z,1007.3
2022-10-28T17:33:03.303Z,1007.3
2022-10-28T17:36:03.494Z,1007.3
2022-10-28T17:38:03.295Z,1007.4
2022-10-28T17:40:03.337Z,1007.4
2022-10-28T17:43:03.271Z,1007.4
2022-10-28T17:46:03.265Z,1007.4
2022-10-28T17:48:13.585Z,1007.3
2022-10-28T17:51:03.379Z,1007.5
2022-10-28T17:54:03.252Z,1007.5
2022-10-28T17:56:03.419Z,1007.5
2022-10-28T17:59:03.288Z,1007.4
2022-10-28T18:02:03.439Z,1007.4
2022-10-28T18:04:03.312Z,1007.5
2022-10-28T18:07:03.308Z,1007.4
2022-10-28T18:10:06.399Z,1007.4
2022-10-28T18:12:03.335Z,1007.4
2022-10-28T18:15:03.257Z,1007.4
2022-10-28T18:18:03.360Z,1007.4
2022-10-28T18:21:03.268Z,1007.5
2022-10-28T18:23:03.292Z,1007.5
2022-10-28T18:25:03.286Z,1007.5
2022-10-28T18:28:03.278Z,1007.5
2022-10-28T18:30:03.277Z,1007.4
2022-10-28T18:33:03.304Z,1007.5
2022-10-28T18:35:03.252Z,1007.5
2022-10-28T18:37:03.274Z,1007.5
2022-10-28T18:40:03.259Z,1007.5
2022-10-28T18:42:03.294Z,1007.4
2022-10-28T18:44:03.317Z,1007.4
2022-10-28T18:47:03.290Z,1007.4
2022-10-28T18:50:03.276Z,1007.4
2022-10-28T18:53:03.266Z,1007.4
2022-10-28T18:55:03.295Z,1007.4
2022-10-28T18:58:03.263Z,1007.4
2022-10-28T19:00:19.532Z,1007.4
2022-10-28T19:02:03.434Z,1007.4
2022-10-28T19:05:03.283Z,1007.5
2022-10-28T19:08:03.286Z,1007.5
2022-10-28T19:10:03.291Z,1007.6
2022-10-28T19:13:03.278Z,1007.5
2022-10-28T19:17:03.297Z,1007.5
2022-10-28T19:21:03.285Z,1007.6
2022-10-28T19:23:13.607Z,1007.6
2022-10-28T19:26:03.317Z,1007.6
2022-10-28T19:28:25.646Z,1007.7
2022-10-28T19:31:13.591Z,1007.6
2022-10-28T19:34:03.290Z,1007.6
2022-10-28T19:36:03.374Z,1007.5
2022-10-28T19:39:03.292Z,1007.6
2022-10-28T19:41:13.990Z,1007.6
2022-10-28T19:44:03.294Z,1007.7
2022-10-28T19:46:03.297Z,1007.7
2022-10-28T19:49:03.322Z,1007.6
2022-10-28T19:51:03.326Z,1007.6
2022-10-28T19:54:03.315Z,1007.7
2022-10-28T19:57:03.360Z,1007.7
2022-10-28T19:59:03.306Z,1007.7
2022-10-28T20:02:03.820Z,1007.7
2022-10-28T20:05:03.310Z,1007.7
2022-10-28T20:08:03.393Z,1007.7
2022-10-28T20:10:03.298Z,1007.7
2022-10-28T20:13:03.329Z,1007.7
2022-10-28T20:15:03.309Z,1007.7
2022-10-28T20:18:03.290Z,1007.7
2022-10-28T20:20:03.285Z,1007.8
2022-10-28T20:23:03.310Z,1007.8
2022-10-28T20:26:03.293Z,1007.7
2022-10-28T20:29:03.310Z,1007.8
2022-10-28T20:31:03.337Z,1007.8
2022-10-28T20:34:03.327Z,1007.8
2022-10-28T20:37:13.630Z,1007.8
2022-10-28T20:40:06.210Z,1007.8
2022-10-28T20:43:03.293Z,1007.9
2022-10-28T20:45:03.321Z,1007.9
2022-10-28T20:47:03.318Z,1008
2022-10-28T20:49:13.582Z,1008.1
2022-10-28T20:51:23.857Z,1008.1
2022-10-28T20:54:03.310Z,1008
2022-10-28T20:57:03.339Z,1008
2022-10-28T21:00:03.313Z,1008.1
2022-10-28T21:03:03.483Z,1008.2
2022-10-28T21:05:03.320Z,1008.2
2022-10-28T21:07:03.412Z,1008.3
2022-10-28T21:09:03.304Z,1008.2
2022-10-28T21:12:03.362Z,1008.2
2022-10-28T21:14:03.311Z,1008.3
2022-10-28T21:17:03.347Z,1008.4
2022-10-28T21:20:03.420Z,1008.4
2022-10-28T21:23:03.460Z,1008.3
2022-10-28T21:25:03.317Z,1008.4
2022-10-28T21:27:03.334Z,1008.3
2022-10-28T21:30:03.393Z,1008.4
2022-10-28T21:32:03.349Z,1008.5
2022-10-28T21:34:04.511Z,1008.5
2022-10-28T21:36:03.354Z,1008.5
2022-10-28T21:38:03.338Z,1008.6
2022-10-28T21:41:03.421Z,1008.5
2022-10-28T21:43:03.327Z,1008.5
2022-10-28T21:45:03.411Z,1008.5
2022-10-28T21:47:03.307Z,1008.5
2022-10-28T21:50:03.432Z,1008.4
2022-10-28T21:52:03.452Z,1008.4
2022-10-28T21:55:06.093Z,1008.5
2022-10-28T21:57:03.380Z,1008.5
2022-10-28T22:00:03.312Z,1008.6
2022-10-28T22:02:03.574Z,1008.6
2022-10-28T22:05:03.429Z,1008.5
2022-10-28T22:07:03.389Z,1008.5
2022-10-28T22:10:03.332Z,1008.5
2022-10-28T22:13:03.405Z,1008.5
2022-10-28T22:15:03.352Z,1008.5
2022-10-28T22:18:03.433Z,1008.5
2022-10-28T22:21:03.340Z,1008.4
2022-10-28T22:23:03.404Z,1008.4
2022-10-28T22:25:04.860Z,1008.3
2022-10-28T22:27:03.345Z,1008.4
2022-10-28T22:30:03.565Z,1008.4
2022-10-28T22:32:03.363Z,1008.4
2022-10-28T22:35:03.515Z,1008.4
2022-10-28T22:38:06.488Z,1008.4
2022-10-28T22:40:03.414Z,1008.4
2022-10-28T22:43:03.354Z,1008.4
2022-10-28T22:46:03.379Z,1008.4
2022-10-28T22:49:03.593Z,1008.4
2022-10-28T22:52:03.385Z,1008.5
2022-10-28T22:55:03.340Z,1008.4
2022-10-28T22:57:03.518Z,1008.4
2022-10-28T22:59:03.367Z,1008.4
2022-10-28T23:01:03.351Z,1008.3
2022-10-28T23:03:03.520Z,1008.3
2022-10-28T23:06:03.339Z,1008.3
2022-10-28T23:08:03.507Z,1008.3
2022-10-28T23:11:03.466Z,1008.3
2022-10-28T23:15:03.327Z,1008.3
2022-10-28T23:17:03.415Z,1008.3
2022-10-28T23:19:03.355Z,1008.3
2022-10-28T23:23:03.361Z,1008.3
2022-10-28T23:25:13.649Z,1008.3
2022-10-28T23:28:34.265Z,1008.4
2022-10-28T23:31:13.751Z,1008.3
2022-10-28T23:33:13.665Z,1008.3
2022-10-28T23:35:13.663Z,1008.3
2022-10-28T23:38:13.848Z,1008.3
2022-10-28T23:41:13.621Z,1008.3
2022-10-28T23:43:13.832Z,1008.3
2022-10-28T23:45:13.649Z,1008.3
2022-10-28T23:47:13.663Z,1008.2
2022-10-28T23:50:13.739Z,1008.3
2022-10-28T23:52:13.654Z,1008.3
2022-10-28T23:55:13.982Z,1008.3
2022-10-28T23:58:13.632Z,1008.3
